Time;durP1;ratioP1;P1;durP2;ratioP2;P2;SDS_P1;SDS_P2;PMS_P1;PMS_P2;Temp;Humidity;BMP_temperature;BMP_pressure;BME280_temperature;BME280_humidity;BME280_pressure;Samples;Min_cycle;Max_cycle;Signal;HPM_P1;HPM_P2
2022/12/13 00:00:18;;;;;;;70.97;33.75;;;;;;;;;;5096316;28;20056;-54
2022/12/13 00:02:45;;;;;;;73.05;32.95;;;-3.30;99.90;;;;;;5096362;28;20055;-52
2022/12/13 00:05:11;;;;;;;65.07;31.15;;;;;;;;;;5095745;28;20032;-54
2022/12/13 00:07:38;;;;;;;69.05;31.88;;;;;;;;;;5093154;28;20028;-52
2022/12/13 00:10:05;;;;;;;56.95;30.20;;;;;;;;;;5094635;28;20067;-54
2022/12/13 00:12:31;;;;;;;58.47;28.83;;;-3.30;99.90;;;;;;5094590;28;20040;-52
2022/12/13 00:14:57;;;;;;;61.95;28.83;;;;;;;;;;5100486;28;20040;-50
2022/12/13 00:17:23;;;;;;;50.42;29.15;;;;;;;;;;5091751;28;20502;-53
2022/12/13 00:19:50;;;;;;;58.83;27.05;;;;;;;;;;5092219;28;20066;-52
2022/12/13 00:22:15;;;;;;;52.90;28.50;;;-3.60;99.90;;;;;;5081278;28;20051;-53
2022/12/13 00:24:41;;;;;;;56.83;28.00;;;-3.80;99.90;;;;;;5069121;28;20036;-52
2022/12/13 00:27:08;;;;;;;50.17;25.17;;;;;;;;;;5089809;28;20054;-52
2022/12/13 00:29:34;;;;;;;51.47;26.40;;;;;;;;;;5071897;28;20044;-52
2022/12/13 00:32:00;;;;;;;51.97;27.00;;;;;;;;;;5085051;28;20629;-55
2022/12/13 00:34:26;;;;;;;57.97;28.30;;;-4.20;99.90;;;;;;5086544;28;20402;-53
2022/12/13 00:36:53;;;;;;;51.70;26.45;;;-4.10;99.90;;;;;;5074230;28;20048;-53
2022/12/13 00:39:19;;;;;;;50.08;25.48;;;-4.20;99.90;;;;;;5073721;28;20047;-52
2022/12/13 00:41:45;;;;;;;49.47;25.92;;;;;;;;;;5091513;28;20381;-54
2022/12/13 00:44:12;;;;;;;49.08;26.08;;;-4.30;99.90;;;;;;5074542;28;20036;-52
2022/12/13 00:46:38;;;;;;;51.60;25.05;;;;;;;;;;5092192;28;20051;-52
2022/12/13 00:49:04;;;;;;;49.20;26.10;;;;;;;;;;5092318;28;20028;-54
2022/12/13 00:51:32;;;;;;;48.67;24.45;;;-5.00;99.90;;;;;;5087514;28;20040;-52
2022/12/13 00:53:59;;;;;;;44.00;24.70;;;;;;;;;;5086435;28;20036;-51
2022/12/13 00:56:27;;;;;;;53.05;26.20;;;;;;;;;;5089296;28;20036;-50
2022/12/13 00:58:54;;;;;;;52.38;24.40;;;;;;;;;;5090639;28;20043;-54
2022/12/13 01:01:21;;;;;;;52.67;26.30;;;;;;;;;;5095882;28;20083;-52
2022/12/13 01:03:47;;;;;;;57.20;25.42;;;;;;;;;;5093803;28;20171;-55
2022/12/13 01:06:32;;;;;;;58.13;26.65;;;-4.50;99.90;;;;;;5092807;28;20047;-55
2022/12/13 01:08:58;;;;;;;;;;;;;;;;;;5081789;28;20032;-53
2022/12/13 01:11:24;;;;;;;52.97;25.77;;;;;;;;;;5092183;28;20304;-53
2022/12/13 01:13:50;;;;;;;58.67;28.02;;;;;;;;;;5091653;28;20051;-56
2022/12/13 01:16:17;;;;;;;54.75;28.45;;;-3.80;99.90;;;;;;5092126;28;20036;-49
2022/12/13 01:18:43;;;;;;;56.33;26.77;;;-4.10;99.90;;;;;;5086754;28;20036;-52
2022/12/13 01:21:11;;;;;;;58.42;29.13;;;;;;;;;;5091903;28;20039;-54
2022/12/13 01:23:38;;;;;;;55.38;27.65;;;-3.90;99.90;;;;;;5091534;28;20517;-54
2022/12/13 01:26:05;;;;;;;48.95;26.50;;;;;;;;;;5091428;28;20038;-53
2022/12/13 01:28:32;;;;;;;53.95;27.13;;;;;;;;;;5091160;28;20378;-49
2022/12/13 01:31:04;;;;;;;54.17;26.15;;;-4.20;99.90;;;;;;5091422;28;20481;-54
2022/12/13 01:33:31;;;;;;;44.88;23.45;;;-4.30;99.90;;;;;;5089188;28;20029;-55
2022/12/13 01:36:00;;;;;;;51.92;24.30;;;;;;;;;;5085728;28;20032;-54
2022/12/13 01:38:26;;;;;;;52.63;24.38;;;;;;;;;;5084260;28;20040;-54
2022/12/13 01:40:56;;;;;;;53.03;25.05;;;;;;;;;;5089492;28;20106;-52
2022/12/13 01:43:49;;;;;;;48.83;24.55;;;-4.40;99.90;;;;;;5088081;28;20037;-55
2022/12/13 01:46:16;;;;;;;60.72;29.17;;;-4.30;99.90;;;;;;5088865;28;20032;-55
2022/12/13 01:48:57;;;;;;;51.28;24.75;;;;;;;;;;5086662;28;20429;-52
2022/12/13 01:51:29;;;;;;;49.42;25.17;;;;;;;;;;5091044;28;20076;-52
2022/12/13 01:53:56;;;;;;;51.00;26.30;;;;;;;;;;5082864;28;20051;-51
2022/12/13 01:56:29;;;;;;;55.53;26.27;;;;;;;;;;5089391;28;20061;-52
2022/12/13 01:58:56;;;;;;;49.40;24.80;;;;;;;;;;5083004;28;20036;-52
2022/12/13 02:01:22;;;;;;;56.10;26.25;;;;;;;;;;5087899;28;20035;-50
2022/12/13 02:03:48;;;;;;;52.65;26.48;;;;;;;;;;5090721;28;20051;-50
2022/12/13 02:06:29;;;;;;;56.70;28.25;;;-4.40;99.90;;;;;;5086070;28;20036;-55
2022/12/13 02:08:56;;;;;;;53.30;26.35;;;-4.20;99.90;;;;;;5083256;28;20115;-54
2022/12/13 02:11:22;;;;;;;58.28;28.73;;;-4.00;99.90;;;;;;5089858;28;20093;-55
2022/12/13 02:13:48;;;;;;;54.83;24.25;;;;;;;;;;5086149;28;20067;-53
2022/12/13 02:16:22;;;;;;;50.85;24.15;;;-3.30;99.90;;;;;;5082368;28;20398;-54
2022/12/13 02:19:05;;;;;;;52.90;27.40;;;;;;;;;;5089970;28;20050;-52
2022/12/13 02:21:45;;;;;;;50.53;25.55;;;-3.50;99.90;;;;;;5090577;28;20039;-53
2022/12/13 02:24:11;;;;;;;52.55;23.75;;;;;;;;;;5091003;28;20044;-54
2022/12/13 02:26:54;;;;;;;47.40;24.58;;;;;;;;;;5093165;28;20111;-53
2022/12/13 02:29:20;;;;;;;54.20;26.45;;;;;;;;;;5090846;28;20044;-55
2022/12/13 02:32:01;;;;;;;52.45;26.17;;;;;;;;;;5084713;28;20040;-55
2022/12/13 02:34:39;;;;;;;53.20;25.27;;;;;;;;;;5083701;28;20393;-52
2022/12/13 02:37:15;;;;;;;52.88;25.45;;;-3.80;99.90;;;;;;5087645;28;20046;-53
2022/12/13 02:39:43;;;;;;;48.55;25.33;;;;;;;;;;5089303;28;20044;-52
2022/12/13 02:42:23;;;;;;;47.90;25.58;;;;;;;;;;5094834;28;20123;-55
2022/12/13 02:44:51;;;;;;;47.53;23.83;;;;;;;;;;5073323;28;20039;-54
2022/12/13 02:47:21;;;;;;;52.47;24.95;;;;;;;;;;5090088;28;20096;-54
2022/12/13 02:49:52;;;;;;;46.47;24.65;;;;;;;;;;5072460;28;20040;-54
2022/12/13 02:52:23;;;;;;;52.05;24.02;;;-3.80;99.90;;;;;;5090518;28;20036;-52
2022/12/13 02:54:49;;;;;;;39.83;21.83;;;;;;;;;;5085580;28;20036;-54
2022/12/13 02:57:34;;;;;;;39.35;21.30;;;;;;;;;;5103901;28;20230;-52
2022/12/13 03:00:19;;;;;;;38.47;21.02;;;-4.00;99.90;;;;;;5089911;28;20055;-51
2022/12/13 03:02:57;;;;;;;40.45;20.25;;;;;;;;;;5089778;28;20027;-54
2022/12/13 03:08:49;;;;;;;45.22;21.05;;;;;;;;;;5086281;28;20044;-49
2022/12/13 03:11:17;;;;;;;37.05;20.65;;;-5.20;99.90;;;;;;5093001;28;20059;-54
2022/12/13 03:13:45;;;;;;;39.72;20.58;;;-5.00;99.90;;;;;;5090180;28;20039;-54
2022/12/13 03:16:17;;;;;;;42.78;20.88;;;;;;;;;;5070540;28;20527;-51
2022/12/13 03:18:44;;;;;;;39.28;20.42;;;;;;;;;;5099552;28;20040;-52
2022/12/13 03:21:11;;;;;;;37.75;21.05;;;-4.90;99.90;;;;;;5090053;28;20123;-55
2022/12/13 03:23:37;;;;;;;44.08;20.20;;;-5.10;99.90;;;;;;5088176;28;20379;-53
2022/12/13 03:26:12;;;;;;;38.53;20.38;;;;;;;;;;5090138;28;20032;-56
2022/12/13 03:28:39;;;;;;;38.83;20.75;;;-5.00;99.90;;;;;;5087506;28;20067;-53
2022/12/13 03:31:05;;;;;;;38.15;19.15;;;;;;;;;;5090099;28;20464;-55
2022/12/13 03:33:31;;;;;;;32.45;17.48;;;-5.10;99.90;;;;;;5089514;28;20085;-53
2022/12/13 03:35:57;;;;;;;42.70;20.63;;;;;;;;;;5087178;28;20064;-53
2022/12/13 03:38:24;;;;;;;39.90;18.50;;;;;;;;;;5088098;28;20508;-54
2022/12/13 03:40:51;;;;;;;32.90;19.45;;;;;;;;;;5089982;28;20044;-55
2022/12/13 03:43:17;;;;;;;37.88;18.65;;;;;;;;;;5089744;28;20043;-52
2022/12/13 03:45:43;;;;;;;35.33;20.60;;;;;;;;;;5093318;28;20166;-52
2022/12/13 03:48:09;;;;;;;38.03;20.05;;;;;;;;;;5086216;28;20045;-55
2022/12/13 03:50:35;;;;;;;35.90;17.42;;;;;;;;;;5070633;28;20032;-52
2022/12/13 03:53:02;;;;;;;35.85;19.27;;;;;;;;;;5089932;28;20039;-55
2022/12/13 03:55:29;;;;;;;34.20;17.77;;;;;;;;;;5074229;28;20032;-52
2022/12/13 03:57:55;;;;;;;38.40;19.65;;;-5.30;99.90;;;;;;5093264;28;20036;-53
2022/12/13 04:00:21;;;;;;;34.38;19.35;;;-5.30;99.90;;;;;;5093225;28;20036;-51
2022/12/13 04:02:47;;;;;;;38.30;19.63;;;;;;;;;;5092937;28;20099;-52
2022/12/13 04:05:13;;;;;;;35.70;19.10;;;;;;;;;;5093360;28;20036;-54
2022/12/13 04:07:39;;;;;;;36.38;18.13;;;-5.30;99.90;;;;;;5092814;28;20038;-54
2022/12/13 04:10:06;;;;;;;35.25;18.60;;;-5.20;99.90;;;;;;5093277;28;20406;-53
2022/12/13 04:15:16;;;;;;;40.25;19.17;;;-5.40;99.90;;;;;;5085868;28;20501;-54
2022/12/13 04:17:42;;;;;;;31.52;17.60;;;-5.50;99.90;;;;;;5089494;28;20044;-53
2022/12/13 04:20:08;;;;;;;37.22;18.45;;;;;;;;;;5088524;28;20032;-53
2022/12/13 04:22:34;;;;;;;32.15;17.95;;;;;;;;;;5092546;28;20040;-51
2022/12/13 04:25:00;;;;;;;33.45;18.15;;;;;;;;;;5092832;28;20067;-49
2022/12/13 04:27:26;;;;;;;34.88;18.63;;;;;;;;;;5092562;28;20036;-54
2022/12/13 04:29:52;;;;;;;38.92;19.70;;;;;;;;;;5092723;28;20115;-53
2022/12/13 04:32:18;;;;;;;38.53;19.67;;;;;;;;;;5093148;28;20074;-51
2022/12/13 04:34:44;;;;;;;38.15;19.17;;;-5.20;99.90;;;;;;5087188;28;20052;-54
2022/12/13 04:37:10;;;;;;;39.15;19.08;;;-5.30;99.90;;;;;;5080693;28;20036;-50
2022/12/13 04:39:35;;;;;;;39.50;18.67;;;-5.30;99.90;;;;;;5095446;28;20040;-51
2022/12/13 04:42:02;;;;;;;40.10;19.27;;;;;;;;;;5092436;28;20035;-52
2022/12/13 04:44:28;;;;;;;38.67;18.35;;;;;;;;;;5093010;28;20507;-51
2022/12/13 04:46:54;;;;;;;39.03;19.58;;;;;;;;;;5092312;28;20060;-52
2022/12/13 04:49:20;;;;;;;43.95;19.63;;;;;;;;;;5092597;28;20036;-55
2022/12/13 04:51:46;;;;;;;34.08;18.45;;;;;;;;;;5087949;28;20032;-52
2022/12/13 04:54:12;;;;;;;40.03;18.80;;;;;;;;;;5092783;28;20115;-52
2022/12/13 04:56:38;;;;;;;36.20;19.52;;;;;;;;;;5086526;28;20044;-54
2022/12/13 04:59:03;;;;;;;37.60;20.13;;;-5.10;99.90;;;;;;5072482;28;20055;-54
2022/12/13 05:01:29;;;;;;;34.63;19.88;;;-5.00;99.90;;;;;;5092268;28;20051;-51
2022/12/13 05:03:55;;;;;;;41.92;19.95;;;;;;;;;;5091493;28;20040;-51
2022/12/13 05:06:21;;;;;;;38.30;20.80;;;;;;;;;;5071197;28;20036;-53
2022/12/13 05:08:47;;;;;;;47.00;22.75;;;;;;;;;;5100278;28;20048;-49
2022/12/13 05:11:13;;;;;;;42.13;21.33;;;;;;;;;;5091718;28;20123;-55
2022/12/13 05:13:40;;;;;;;38.13;21.83;;;;;;;;;;5074190;28;20039;-54
2022/12/13 05:16:07;;;;;;;41.30;21.35;;;;;;;;;;5089799;28;20054;-50
2022/12/13 05:18:35;;;;;;;41.45;22.15;;;-4.40;99.90;;;;;;5091414;28;20115;-54
2022/12/13 05:21:05;;;;;;;43.35;21.65;;;;;;;;;;5086692;28;20074;-53
2022/12/13 05:23:32;;;;;;;37.75;21.08;;;;;;;;;;5083985;28;20051;-52
2022/12/13 05:25:58;;;;;;;44.10;21.42;;;;;;;;;;5085239;28;20040;-54
2022/12/13 05:28:26;;;;;;;40.78;21.52;;;;;;;;;;5081726;28;20040;-52
2022/12/13 05:30:53;;;;;;;47.10;21.85;;;;;;;;;;5089429;28;20043;-53
2022/12/13 05:33:19;;;;;;;44.40;25.30;;;;;;;;;;5092005;28;20043;-50
2022/12/13 05:35:45;;;;;;;43.35;21.45;;;-4.50;99.90;;;;;;5094321;28;20073;-51
2022/12/13 05:38:11;;;;;;;41.38;22.02;;;;;;;;;;5101561;28;20036;-49
2022/12/13 05:40:38;;;;;;;42.03;23.20;;;;;;;;;;5089285;28;20039;-50
2022/12/13 05:43:04;;;;;;;43.45;25.25;;;;;;;;;;5091765;28;20077;-49
2022/12/13 05:45:31;;;;;;;47.35;22.33;;;-4.20;99.90;;;;;;5077856;28;20127;-49
2022/12/13 05:47:57;;;;;;;43.30;23.60;;;-4.60;99.90;;;;;;5076014;28;20032;-51
2022/12/13 05:50:24;;;;;;;44.55;22.80;;;;;;;;;;5072178;28;20065;-52
2022/12/13 05:52:50;;;;;;;53.10;26.90;;;;;;;;;;5066358;28;20036;-54
2022/12/13 05:55:16;;;;;;;46.55;23.95;;;;;;;;;;5070729;28;20040;-51
2022/12/13 05:57:42;;;;;;;47.67;25.40;;;;;;;;;;5074019;28;20044;-54
2022/12/13 06:00:09;;;;;;;50.60;26.75;;;;;;;;;;5071771;28;20042;-54
2022/12/13 06:02:38;;;;;;;49.35;27.10;;;;;;;;;;5075427;28;20037;-51
2022/12/13 06:05:05;;;;;;;53.92;26.55;;;-3.60;99.90;;;;;;5076545;28;20040;-52
2022/12/13 06:07:31;;;;;;;44.85;23.92;;;;;;;;;;5073468;28;20098;-53
2022/12/13 06:10:00;;;;;;;48.28;24.35;;;;;;;;;;5070909;28;20526;-53
2022/12/13 06:12:26;;;;;;;45.58;25.13;;;;;;;;;;5079041;28;20101;-54
2022/12/13 06:14:52;;;;;;;43.08;25.50;;;;;;;;;;5081187;28;20036;-51
2022/12/13 06:17:18;;;;;;;46.38;24.08;;;;;;;;;;5083998;28;20185;-52
2022/12/13 06:19:45;;;;;;;43.35;23.80;;;;;;;;;;5083369;28;20131;-55
2022/12/13 06:22:11;;;;;;;41.55;21.35;;;;;;;;;;5069750;28;20051;-54
2022/12/13 06:24:37;;;;;;;38.45;20.17;;;;;;;;;;5086760;28;20036;-54
2022/12/13 06:27:04;;;;;;;36.20;20.42;;;-4.30;99.90;;;;;;5081484;28;20515;-55
2022/12/13 06:29:29;;;;;;;36.15;19.15;;;-4.40;99.90;;;;;;5089717;28;20499;-55
2022/12/13 06:31:59;;;;;;;34.53;19.20;;;;;;;;;;5081958;28;20044;-52
2022/12/13 06:34:25;;;;;;;35.88;18.17;;;;;;;;;;5090658;28;20151;-51
2022/12/13 06:36:51;;;;;;;32.92;18.15;;;;;;;;;;5090851;28;20478;-50
2022/12/13 06:39:17;;;;;;;37.00;18.23;;;;;;;;;;5087896;28;20044;-54
2022/12/13 06:41:44;;;;;;;39.83;20.85;;;;;;;;;;5061341;28;20037;-55
2022/12/13 06:44:10;;;;;;;36.08;21.25;;;-5.20;99.90;;;;;;5072014;28;20044;-52
2022/12/13 06:46:36;;;;;;;33.28;20.25;;;;;;;;;;5074579;28;20035;-49
2022/12/13 06:49:03;;;;;;;34.25;19.00;;;;;;;;;;5073732;28;20043;-51
2022/12/13 06:51:28;;;;;;;34.00;18.98;;;-5.10;99.90;;;;;;5075733;28;20378;-52
2022/12/13 06:53:55;;;;;;;33.58;18.30;;;;;;;;;;5083811;28;20039;-50
2022/12/13 06:56:21;;;;;;;35.17;18.15;;;-4.70;99.90;;;;;;5090355;28;20036;-50
2022/12/13 06:58:48;;;;;;;33.92;18.75;;;;;;;;;;5085785;28;20037;-52
2022/12/13 07:01:15;;;;;;;37.60;18.00;;;;;;;;;;5080711;28;20128;-54
2022/12/13 07:03:41;;;;;;;35.47;17.73;;;;;;;;;;5088568;28;20036;-52
2022/12/13 07:06:18;;;;;;;34.58;17.80;;;;;;;;;;5074212;28;20040;-54
2022/12/13 07:08:47;;;;;;;30.42;17.77;;;;;;;;;;5080668;28;20036;-52
2022/12/13 07:11:18;;;;;;;35.38;17.08;;;-4.60;99.90;;;;;;5092719;28;21146;-52
2022/12/13 07:13:44;;;;;;;35.35;18.83;;;;;;;;;;5088496;28;20413;-51
2022/12/13 07:16:11;;;;;;;37.75;18.00;;;-5.20;99.90;;;;;;5088709;28;20039;-52
2022/12/13 07:18:36;;;;;;;37.80;21.05;;;-5.20;99.90;;;;;;5087396;28;20033;-52
2022/12/13 07:21:11;;;;;;;34.90;19.10;;;-5.00;99.90;;;;;;5085810;28;20101;-53
2022/12/13 07:23:38;;;;;;;39.85;20.42;;;;;;;;;;5081293;28;20040;-54
2022/12/13 07:26:04;;;;;;;40.70;20.45;;;;;;;;;;5074677;28;20032;-53
2022/12/13 07:28:35;;;;;;;35.38;19.45;;;-5.20;99.90;;;;;;5094804;28;20040;-54
2022/12/13 07:31:02;;;;;;;39.78;20.45;;;;;;;;;;5084106;28;20031;-52
2022/12/13 07:33:28;;;;;;;38.03;20.65;;;;;;;;;;5082852;28;20033;-52
2022/12/13 07:36:02;;;;;;;40.83;20.88;;;-4.80;99.90;;;;;;5078714;28;20036;-54
2022/12/13 07:38:28;;;;;;;39.80;23.88;;;-4.60;99.90;;;;;;5072603;28;20038;-52
2022/12/13 07:40:56;;;;;;;37.67;21.15;;;;;;;;;;5096164;28;20031;-51
2022/12/13 07:43:23;;;;;;;46.30;22.02;;;;;;;;;;5079707;28;20045;-49
2022/12/13 07:45:49;;;;;;;36.50;20.25;;;;;;;;;;5088836;28;20047;-51
2022/12/13 07:48:15;;;;;;;42.88;22.58;;;;;;;;;;5096687;28;20039;-53
2022/12/13 07:50:41;;;;;;;40.08;22.58;;;;;;;;;;5091309;28;20088;-53
2022/12/13 07:53:08;;;;;;;44.90;23.35;;;;;;;;;;5092906;28;20047;-54
2022/12/13 07:55:34;;;;;;;44.08;22.63;;;-4.30;99.90;;;;;;5101451;28;20402;-52
2022/12/13 07:58:28;;;;;;;43.40;21.90;;;-4.30;99.90;;;;;;5100530;28;20532;-51
2022/12/13 08:00:58;;;;;;;44.55;23.52;;;;;;;;;;5078364;28;20219;-51
2022/12/13 08:03:24;;;;;;;36.88;22.35;;;;;;;;;;5086535;28;20497;-49
2022/12/13 08:06:01;;;;;;;39.50;22.42;;;-4.00;99.90;;;;;;5085648;28;20112;-49
2022/12/13 08:08:27;;;;;;;37.72;20.75;;;;;;;;;;5081352;28;20170;-51
2022/12/13 08:10:53;;;;;;;44.83;22.63;;;;;;;;;;5084684;28;20040;-53
2022/12/13 08:13:20;;;;;;;43.50;22.45;;;;;;;;;;5080794;28;20405;-52
2022/12/13 08:15:46;;;;;;;45.92;27.38;;;;;;;;;;5100358;28;20150;-51
2022/12/13 08:18:12;;;;;;;42.28;23.27;;;;;;;;;;5082233;28;20041;-51
2022/12/13 08:20:38;;;;;;;40.03;22.17;;;;;;;;;;5089742;28;20042;-51
2022/12/13 08:23:05;;;;;;;45.17;25.10;;;;;;;;;;5086971;28;20028;-49
2022/12/13 08:25:31;;;;;;;45.45;23.17;;;;;;;;;;5081719;28;20458;-54
2022/12/13 08:27:57;;;;;;;46.90;22.73;;;;;;;;;;5088862;28;20034;-53
2022/12/13 08:30:23;;;;;;;47.40;23.80;;;-3.60;99.90;;;;;;5081944;28;20051;-54
2022/12/13 08:32:49;;;;;;;51.53;26.08;;;-4.00;99.90;;;;;;5095015;28;20057;-53
2022/12/13 08:35:15;;;;;;;48.03;24.98;;;-3.50;99.90;;;;;;5077444;28;20115;-51
2022/12/13 08:37:41;;;;;;;47.85;26.35;;;;;;;;;;5068552;28;20124;-52
2022/12/13 08:40:08;;;;;;;48.03;27.75;;;;;;;;;;5094261;28;20078;-53
2022/12/13 08:42:34;;;;;;;53.60;27.55;;;;;;;;;;5084326;28;20055;-53
2022/12/13 08:45:00;;;;;;;51.63;28.42;;;-3.10;99.90;;;;;;5091501;28;20045;-54
2022/12/13 08:47:26;;;;;;;49.45;26.90;;;;;;;;;;5062241;28;20041;-54
2022/12/13 08:49:57;;;;;;;55.65;28.05;;;;;;;;;;5089656;28;20409;-53
2022/12/13 08:52:23;;;;;;;53.40;27.92;;;;;;;;;;5076353;28;20036;-52
2022/12/13 08:54:50;;;;;;;51.60;27.35;;;;;;;;;;5102587;28;20032;-52
2022/12/13 08:57:16;;;;;;;51.83;28.70;;;;;;;;;;5087175;28;20118;-54
2022/12/13 08:59:42;;;;;;;54.20;29.20;;;;;;;;;;5075203;28;20036;-53
2022/12/13 09:02:14;;;;;;;55.35;29.30;;;-2.40;99.90;;;;;;5079482;28;20047;-53
2022/12/13 09:04:40;;;;;;;57.05;29.88;;;;;;;;;;5083355;28;20044;-54
2022/12/13 09:07:07;;;;;;;56.03;29.92;;;;;;;;;;5079512;28;20044;-55
2022/12/13 09:09:33;;;;;;;55.03;29.17;;;;;;;;;;5078818;28;20107;-52
2022/12/13 09:11:59;;;;;;;53.03;29.67;;;;;;;;;;5061925;28;20468;-54
2022/12/13 09:14:28;;;;;;;53.22;28.63;;;;;;;;;;5078400;28;20047;-53
2022/12/13 09:16:54;;;;;;;57.47;30.13;;;;;;;;;;5079330;28;20046;-54
2022/12/13 09:19:20;;;;;;;57.90;29.17;;;;;;;;;;5077009;28;20044;-54
2022/12/13 09:21:46;;;;;;;54.95;30.30;;;;;;;;;;5063574;28;20041;-55
2022/12/13 09:24:13;;;;;;;57.45;31.58;;;-2.20;99.90;;;;;;5083553;28;20036;-55
2022/12/13 09:26:38;;;;;;;50.83;29.33;;;-2.10;99.90;;;;;;5073874;28;20039;-54
2022/12/13 09:29:04;;;;;;;65.15;33.40;;;;;;;;;;5061167;28;20123;-53
2022/12/13 09:31:33;;;;;;;56.08;30.98;;;;;;;;;;5065844;28;20033;-50
2022/12/13 09:33:59;;;;;;;61.47;33.83;;;-2.00;99.90;;;;;;5077803;28;20067;-54
2022/12/13 09:36:25;;;;;;;58.83;30.58;;;;;;;;;;5080268;28;20501;-52
2022/12/13 09:38:51;;;;;;;61.15;31.48;;;;;;;;;;5079264;28;20126;-55
2022/12/13 09:41:18;;;;;;;64.55;32.35;;;;;;;;;;5072911;28;20045;-53
2022/12/13 09:43:46;;;;;;;57.00;29.85;;;;;;;;;;5082170;28;20712;-54
2022/12/13 09:46:32;;;;;;;64.47;31.48;;;-1.90;99.90;;;;;;5075242;28;20044;-53
2022/12/13 09:49:01;;;;;;;62.17;31.13;;;;;;;;;;5075403;28;20043;-53
2022/12/13 09:51:27;;;;;;;58.85;32.10;;;;;;;;;;5078722;28;20043;-54
2022/12/13 09:53:53;;;;;;;61.83;33.83;;;;;;;;;;5082310;28;20128;-55
2022/12/13 09:56:21;;;;;;;55.10;30.33;;;;;;;;;;5068107;28;20417;-56
2022/12/13 09:58:51;;;;;;;57.58;31.52;;;;;;;;;;5062809;28;20068;-52
2022/12/13 10:01:17;;;;;;;61.10;30.17;;;;;;;;;;5080966;28;20043;-54
2022/12/13 10:03:45;;;;;;;62.75;32.60;;;;;;;;;;5083027;28;20044;-53
2022/12/13 10:06:14;;;;;;;58.88;34.47;;;;;;;;;;5093641;28;20115;-54
2022/12/13 10:08:41;;;;;;;63.05;34.58;;;;;;;;;;5098890;28;20036;-53
2022/12/13 10:11:12;;;;;;;60.90;33.55;;;-1.50;99.90;;;;;;5090312;28;20487;-51
2022/12/13 10:13:38;;;;;;;58.67;33.83;;;;;;;;;;5081753;28;20043;-53
2022/12/13 10:16:07;;;;;;;61.22;32.80;;;;;;;;;;5055010;28;20070;-54
2022/12/13 10:18:34;;;;;;;59.05;32.13;;;;;;;;;;5057273;28;20099;-54
2022/12/13 10:21:07;;;;;;;58.75;30.65;;;;;;;;;;5069607;28;20046;-55
2022/12/13 10:23:33;;;;;;;60.47;32.33;;;;;;;;;;5069933;28;20048;-55
2022/12/13 10:26:00;;;;;;;61.40;33.42;;;;;;;;;;5069656;28;20486;-52
2022/12/13 10:28:28;;;;;;;58.83;33.55;;;;;;;;;;5063562;28;20050;-54
2022/12/13 10:30:56;;;;;;;59.90;31.80;;;-0.80;99.90;;;;;;5076824;28;20040;-55
2022/12/13 10:33:26;;;;;;;61.05;34.22;;;-0.90;99.90;;;;;;5079458;28;20461;-52
2022/12/13 10:36:03;;;;;;;59.55;34.80;;;;;;;;;;5084158;28;20059;-55
2022/12/13 10:38:30;;;;;;;66.60;34.83;;;;;;;;;;5086028;28;20036;-53
2022/12/13 10:40:56;;;;;;;59.80;34.83;;;;;;;;;;5078820;28;20088;-53
2022/12/13 10:43:25;;;;;;;59.45;33.67;;;;;;;;;;5073393;28;20041;-53
2022/12/13 10:45:57;;;;;;;64.22;33.92;;;;;;;;;;5081756;28;20404;-55
2022/12/13 10:48:48;;;;;;;64.28;33.05;;;-1.00;99.90;;;;;;5085164;28;20043;-56
2022/12/13 10:51:14;;;;;;;68.70;37.28;;;;;;;;;;5069340;28;20498;-55
2022/12/13 10:53:49;;;;;;;59.50;33.17;;;;;;;;;;5074881;28;20068;-55
2022/12/13 10:56:18;;;;;;;60.88;34.80;;;;;;;;;;5091609;28;20042;-55
2022/12/13 10:58:46;;;;;;;60.35;36.78;;;-0.80;99.90;;;;;;5086214;28;20051;-53
2022/12/13 11:01:21;;;;;;;58.88;34.50;;;;;;;;;;5064391;28;20104;-55
2022/12/13 11:03:59;;;;;;;63.70;34.33;;;;;;;;;;5082984;28;20748;-54
2022/12/13 11:06:26;;;;;;;59.80;33.10;;;;;;;;;;5089606;28;20044;-56
2022/12/13 11:08:53;;;;;;;58.13;33.00;;;-0.40;99.90;;;;;;5089043;28;20123;-52
2022/12/13 11:11:26;;;;;;;57.15;35.03;;;;;;;;;;5089193;28;20078;-54
2022/12/13 11:13:54;;;;;;;55.05;33.25;;;-0.70;99.90;;;;;;5089538;28;20031;-56
2022/12/13 11:16:26;;;;;;;61.58;35.70;;;;;;;;;;5071466;28;20101;-54
2022/12/13 11:19:00;;;;;;;54.70;32.75;;;;;;;;;;5071376;28;20528;-56
2022/12/13 11:21:28;;;;;;;58.87;33.17;;;;;;;;;;5089408;28;20048;-55
2022/12/13 11:23:55;;;;;;;60.97;35.42;;;;;;;;;;5080898;28;20055;-55
2022/12/13 11:26:22;;;;;;;57.25;34.38;;;-0.20;99.90;;;;;;5071322;28;20057;-54
2022/12/13 11:28:57;;;;;;;61.80;33.38;;;;;;;;;;5089002;28;20047;-55
2022/12/13 11:31:44;;;;;;;55.67;33.08;;;0.30;99.90;;;;;;5089375;28;20447;-54
2022/12/13 11:34:32;;;;;;;68.05;35.63;;;1.50;99.90;;;;;;5083092;28;20161;-51
2022/12/13 11:37:12;;;;;;;72.22;38.92;;;2.40;99.90;;;;;;5099890;28;20062;-54
2022/12/13 11:39:56;;;;;;;76.35;36.58;;;3.10;99.90;;;;;;5091393;28;20036;-51
2022/12/13 11:42:28;;;;;;;66.95;36.78;;;;;;;;;;5066620;28;20070;-53
2022/12/13 11:44:54;;;;;;;64.38;35.33;;;;;;;;;;5083286;28;20040;-51
2022/12/13 11:47:26;;;;;;;55.80;32.30;;;5.80;99.90;;;;;;5088751;28;20040;-54
2022/12/13 11:49:52;;;;;;;42.22;25.52;;;;;;;;;;5071379;28;20039;-54
2022/12/13 11:52:27;;;;;;;42.05;25.02;;;;;;;;;;5089020;28;20043;-54
2022/12/13 11:55:06;;;;;;;33.75;20.90;;;6.50;99.90;;;;;;5081210;28;20036;-53
2022/12/13 11:57:31;;;;;;;34.38;20.27;;;7.10;99.90;;;;;;5067619;28;20052;-52
2022/12/13 12:00:05;;;;;;;28.02;18.38;;;7.60;99.90;;;;;;5089320;28;20036;-55
2022/12/13 12:02:40;;;;;;;24.60;16.40;;;8.10;99.90;;;;;;5088559;28;20512;-55
2022/12/13 12:05:08;;;;;;;22.67;14.93;;;;;;;;;;5094542;28;20799;-51
2022/12/13 12:07:56;;;;;;;25.02;16.13;;;9.00;99.90;;;;;;5093742;28;20040;-55
2022/12/13 12:10:43;;;;;;;25.67;15.70;;;9.20;99.90;;;;;;5088984;28;20072;-53
2022/12/13 12:13:38;;;;;;;23.42;14.57;;;9.30;99.90;;;;;;5088797;28;20043;-51
2022/12/13 12:16:19;;;;;;;20.95;13.23;;;9.20;99.90;;;;;;5090130;28;20035;-57
2022/12/13 12:18:45;;;;;;;21.65;13.35;;;10.20;99.90;;;;;;5091913;28;20505;-54
2022/12/13 12:21:37;;;;;;;19.05;12.73;;;10.00;99.90;;;;;;5092238;28;20082;-53
2022/12/13 12:24:05;;;;;;;18.77;12.63;;;8.60;99.90;;;;;;5092611;28;20032;-53
2022/12/13 12:26:48;;;;;;;18.88;12.20;;;8.10;99.90;;;;;;5091998;28;20079;-52
2022/12/13 12:29:50;;;;;;;21.98;12.80;;;8.40;99.90;;;;;;5091932;28;20024;-53
2022/12/13 12:32:43;;;;;;;20.90;12.45;;;8.60;99.90;;;;;;5060859;28;20055;-55
2022/12/13 12:35:34;;;;;;;18.33;12.15;;;9.00;99.90;;;;;;5094123;28;20550;-55
2022/12/13 12:38:37;;;;;;;18.80;12.10;;;9.70;99.90;;;;;;5105052;28;20481;-55
2022/12/13 12:41:40;;;;;;;18.90;12.15;;;10.10;99.90;;;;;;5085385;28;20444;-55
2022/12/13 12:44:45;;;;;;;19.05;12.13;;;10.40;1.00;;;;;;5085577;28;20555;-56
2022/12/13 12:47:24;;;;;;;19.13;12.40;;;10.90;1.00;;;;;;5091700;28;20040;-56
2022/12/13 12:50:01;;;;;;;18.30;12.63;;;11.10;1.00;;;;;;5074703;28;20076;-56
2022/12/13 12:52:53;;;;;;;18.27;12.15;;;10.30;1.00;;;;;;5074620;28;20525;-56
2022/12/13 12:55:30;;;;;;;17.33;12.05;;;9.70;1.00;;;;;;5071504;28;20410;-55
2022/12/13 12:58:03;;;;;;;19.15;11.75;;;10.00;1.00;;;;;;5074635;28;20035;-55
2022/12/13 13:00:42;;;;;;;19.00;12.55;;;9.80;1.00;;;;;;5054919;28;20048;-56
2022/12/13 13:03:29;;;;;;;17.55;12.55;;;10.00;1.00;;;;;;5080866;28;20098;-56
2022/12/13 13:06:09;;;;;;;19.05;13.02;;;;;;;;;;5078105;28;20509;-56
2022/12/13 13:08:43;;;;;;;18.58;11.80;;;9.70;1.00;;;;;;5080845;28;20501;-55
2022/12/13 13:11:10;;;;;;;16.25;12.23;;;10.30;1.00;;;;;;5083637;28;20111;-56
2022/12/13 13:13:43;;;;;;;17.38;11.32;;;10.20;1.00;;;;;;5075669;28;20062;-56
2022/12/13 13:16:36;;;;;;;16.45;11.57;;;9.50;1.00;;;;;;5086187;28;20127;-54
2022/12/13 13:19:30;;;;;;;17.63;12.18;;;9.80;1.00;;;;;;5073490;28;20154;-56
2022/12/13 13:21:58;;;;;;;18.07;11.07;;;9.90;1.00;;;;;;5048450;28;20101;-54
2022/12/13 13:24:31;;;;;;;17.05;11.75;;;11.20;1.00;;;;;;5075364;28;20387;-53
2022/12/13 13:27:07;;;;;;;19.63;13.15;;;11.50;1.00;;;;;;5080394;28;20537;-54
2022/12/13 13:29:35;;;;;;;20.35;13.65;;;10.90;1.00;;;;;;5091150;28;20494;-53
2022/12/13 13:32:10;;;;;;;19.10;11.90;;;10.60;1.00;;;;;;5076419;28;20024;-55
2022/12/13 13:34:42;;;;;;;17.98;12.57;;;11.30;1.00;;;;;;5080809;28;20048;-55
2022/12/13 13:37:20;;;;;;;18.83;13.00;;;9.30;1.00;;;;;;5059583;28;20489;-55
2022/12/13 13:39:57;;;;;;;25.00;13.63;;;9.20;1.00;;;;;;5083822;28;20032;-53
2022/12/13 13:42:26;;;;;;;18.80;12.98;;;9.40;1.00;;;;;;5073476;28;20507;-55
2022/12/13 13:45:24;;;;;;;18.90;12.57;;;8.80;1.00;;;;;;5079412;28;20032;-55
2022/12/13 13:47:53;;;;;;;19.13;12.35;;;8.00;1.00;;;;;;5040413;28;20063;-50
2022/12/13 13:50:32;;;;;;;20.30;13.48;;;7.60;1.00;;;;;;5081596;28;20553;-55
2022/12/13 13:53:22;;;;;;;18.58;13.30;;;5.90;7.00;;;;;;5074112;28;20063;-55
2022/12/13 13:56:18;;;;;;;18.17;12.68;;;5.10;43.80;;;;;;5094662;28;20070;-55